Time;durP1;ratioP1;P1;durP2;ratioP2;P2;SDS_P1;SDS_P2;PMS_P1;PMS_P2;Temp;Humidity;BMP_temperature;BMP_pressure;BME280_temperature;BME280_humidity;BME280_pressure;Samples;Min_cycle;Max_cycle;Signal;HPM_P1;HPM_P2
2022/06/29 00:02:22;;;;;;;;;4.67;4.67;;;;;20.96;49.13;100717.94;6256125;22;45197;-81
2022/06/29 00:04:48;;;;;;;;;4.00;4.00;;;;;20.97;49.27;100722.41;6262645;22;45079;-81
2022/06/29 00:07:14;;;;;;;;;3.00;3.00;;;;;21.00;49.53;100725.97;6281410;22;45444;-83
2022/06/29 00:09:42;;;;;;;;;3.00;3.00;;;;;21.00;49.01;100725.97;6256618;22;47239;-82
2022/06/29 00:12:08;;;;;;;;;3.67;3.67;;;;;20.96;49.61;100719.75;6257378;22;45810;-82
2022/06/29 00:14:41;;;;;;;;;3.00;3.00;;;;;21.02;49.06;100718.69;6285506;22;45476;-82
2022/06/29 00:17:08;;;;;;;;;3.00;3.00;;;;;20.96;49.80;100709.81;6258321;22;45310;-83
2022/06/29 00:19:34;;;;;;;;;3.33;3.33;;;;;21.00;50.87;100717.84;6258271;22;47559;-82
2022/06/29 00:21:59;;;;;;;;;3.33;3.33;;;;;20.98;50.27;100724.19;6257705;22;45377;-83
2022/06/29 00:24:24;;;;;;;;;2.00;2.00;;;;;20.93;50.84;100715.34;6287103;22;45418;-82
2022/06/29 00:26:50;;;;;;;;;3.67;2.00;;;;;20.95;50.04;100713.47;6288566;22;45401;-83
2022/06/29 00:29:18;;;;;;;;;1.33;1.33;;;;;20.97;50.51;100718.84;6287449;22;46107;-83
2022/06/29 00:31:44;;;;;;;;;5.33;4.00;;;;;20.90;50.32;100703.72;6258391;22;45331;-82
2022/06/29 00:34:10;;;;;;;;;2.33;2.33;;;;;20.86;51.06;100699.31;6261070;22;45409;-83
2022/06/29 00:36:35;;;;;;;;;3.67;3.67;;;;;20.83;50.45;100703.00;6260449;22;45565;-82
2022/06/29 00:39:00;;;;;;;;;4.00;2.00;;;;;20.87;50.75;100715.50;6287552;22;45320;-83
2022/06/29 00:41:27;;;;;;;;;3.33;2.00;;;;;20.83;50.87;100710.25;6259695;22;45371;-82
2022/06/29 00:43:53;;;;;;;;;3.00;3.00;;;;;20.79;50.95;100693.22;6286289;22;45353;-82
2022/06/29 00:46:19;;;;;;;;;2.67;2.67;;;;;20.85;51.22;100706.56;6257398;22;45352;-82
2022/06/29 00:48:46;;;;;;;;;3.00;3.00;;;;;20.82;51.99;100698.53;6257187;22;47430;-82
2022/06/29 00:51:12;;;;;;;;;2.00;2.00;;;;;20.83;50.98;100696.72;6257930;22;45918;-81
2022/06/29 00:53:40;;;;;;;;;2.00;2.00;;;;;20.80;51.50;100694.97;6255392;22;45519;-80
2022/06/29 00:56:09;;;;;;;;;2.67;2.67;;;;;20.74;51.14;100687.97;6229585;22;45343;-82
2022/06/29 00:58:35;;;;;;;;;2.67;2.67;;;;;20.80;51.64;100689.56;6254120;22;46802;-82
2022/06/29 01:01:04;;;;;;;;;2.00;2.00;;;;;20.80;51.52;100692.28;6255752;22;45311;-82
2022/06/29 01:03:32;;;;;;;;;2.33;2.33;;;;;20.73;51.92;100688.88;6257950;22;45170;-82
2022/06/29 01:06:04;;;;;;;;;2.00;2.00;;;;;20.78;51.76;100699.53;6235780;22;45319;-82
2022/06/29 01:08:30;;;;;;;;;3.00;2.33;;;;;20.71;51.97;100689.84;6226235;22;45635;-81
2022/06/29 01:10:55;;;;;;;;;3.00;3.00;;;;;20.71;51.94;100697.97;6253962;22;45387;-82
2022/06/29 01:13:21;;;;;;;;;0.00;0.00;;;;;20.68;52.11;100693.53;6225529;22;45184;-81
2022/06/29 01:15:47;;;;;;;;;2.00;2.00;;;;;20.65;52.53;100693.63;6226785;22;45311;-82
2022/06/29 01:18:12;;;;;;;;;3.00;3.00;;;;;20.63;52.64;100689.19;6253949;22;45280;-81
2022/06/29 01:20:38;;;;;;;;;1.67;1.67;;;;;20.63;52.40;100694.59;6254513;22;44820;-81
2022/06/29 01:23:03;;;;;;;;;3.00;3.00;;;;;20.56;52.73;100688.41;6254631;22;45358;-82
2022/06/29 01:25:29;;;;;;;;;3.00;3.00;;;;;20.54;52.45;100693.91;6229129;22;45422;-81
2022/06/29 01:27:54;;;;;;;;;3.00;3.00;;;;;20.54;52.70;100693.91;6253810;22;45127;-81
2022/06/29 01:30:20;;;;;;;;;2.00;2.00;;;;;20.50;53.13;100686.81;6225550;22;45461;-82
2022/06/29 01:33:35;;;;;;;;;3.00;3.00;;;;;20.51;53.04;100688.56;6226063;22;45461;-80
2022/06/29 01:36:01;;;;;;;;;2.00;2.00;;;;;20.47;53.25;100689.56;6226198;22;45413;-82
2022/06/29 01:38:26;;;;;;;;;3.00;3.00;;;;;20.45;53.26;100691.44;6225624;22;45513;-82
2022/06/29 01:40:51;;;;;;;;;3.00;3.00;;;;;20.41;53.64;100695.16;6226500;22;45407;-83
2022/06/29 01:43:17;;;;;;;;;5.00;4.00;;;;;20.37;53.69;100688.94;6228343;22;45378;-82
2022/06/29 01:45:42;;;;;;;;;3.00;2.33;;;;;20.36;53.87;100691.72;6256309;22;45333;-82
2022/06/29 01:48:08;;;;;;;;;4.00;4.00;;;;;20.33;54.05;100694.47;6256096;22;45228;-82
2022/06/29 01:50:33;;;;;;;;;5.00;5.00;;;;;20.32;53.86;100690.91;6256718;22;44748;-82
2022/06/29 01:52:59;;;;;;;;;4.00;4.00;;;;;20.26;54.42;100684.75;6257124;22;45317;-80
2022/06/29 01:55:24;;;;;;;;;2.33;2.33;;;;;20.31;54.31;100699.03;6255484;22;45308;-82
2022/06/29 01:57:49;;;;;;;;;4.00;4.00;;;;;20.28;54.42;100689.22;6255112;22;45099;-81
2022/06/29 02:00:15;;;;;;;;;3.00;3.00;;;;;20.17;54.67;100675.97;6227132;22;45212;-82
2022/06/29 02:02:41;;;;;;;;;4.00;2.00;;;;;20.18;54.62;100691.25;6226543;22;45306;-81
2022/06/29 02:05:06;;;;;;;;;2.00;2.00;;;;;20.14;54.65;100686.00;6227501;22;44930;-82
2022/06/29 02:07:34;;;;;;;;;2.00;2.00;;;;;20.06;55.13;100678.09;6254685;22;46417;-82
2022/06/29 02:09:59;;;;;;;;;3.67;3.67;;;;;20.06;55.22;100688.88;6253227;22;45463;-82
2022/06/29 02:12:25;;;;;;;;;3.00;3.00;;;;;20.02;55.17;100681.78;6225638;22;45338;-82
2022/06/29 02:14:53;;;;;;;;;3.33;3.33;;;;;19.99;55.27;100671.06;6252425;22;45456;-80
2022/06/29 02:17:19;;;;;;;;;4.00;2.67;;;;;20.01;55.09;100680.00;6225029;22;47154;-81
2022/06/29 02:19:45;;;;;;;;;3.00;3.00;;;;;19.99;55.74;100681.84;6224928;22;45317;-81
2022/06/29 02:22:10;;;;;;;;;3.00;3.00;;;;;19.94;54.89;100681.09;6225349;22;45373;-81
2022/06/29 02:24:35;;;;;;;;;2.00;2.00;;;;;19.89;55.21;100674.94;6225659;22;45386;-82
2022/06/29 02:27:02;;;;;;;;;2.75;2.75;;;;;19.92;55.30;100681.13;6252892;22;45321;-82
2022/06/29 02:29:28;;;;;;;;;4.00;3.00;;;;;19.93;55.37;100676.63;6256222;22;45405;-81
2022/06/29 02:34:43;;;;;;;;;3.00;3.00;;;;;19.84;55.38;100679.56;6257507;22;44839;-82
2022/06/29 02:37:09;;;;;;;;;2.00;2.00;;;;;19.78;55.96;100677.91;6227133;22;45213;-82
2022/06/29 02:39:35;;;;;;;;;4.00;3.00;;;;;19.76;56.09;100677.94;6255417;22;45306;-82
2022/06/29 02:42:00;;;;;;;;;3.33;3.33;;;;;19.76;55.71;100677.94;6227635;22;45366;-82
2022/06/29 02:44:26;;;;;;;;;3.00;3.00;;;;;19.72;55.94;100667.25;6256589;22;45204;-82
2022/06/29 02:47:34;;;;;;;;;3.00;3.00;;;;;19.71;56.14;100677.19;6225133;22;47188;-82
2022/06/29 02:50:00;;;;;;;;;2.00;2.00;;;;;19.65;56.17;100679.97;6226573;22;45297;-82
2022/06/29 02:52:26;;;;;;;;;3.00;3.00;;;;;19.63;56.64;100676.41;6226660;22;45395;-81
2022/06/29 02:54:51;;;;;;;;;5.00;5.00;;;;;19.58;56.50;100663.03;6225598;22;45407;-82
2022/06/29 02:57:17;;;;;;;;;4.00;4.00;;;;;19.61;56.41;100666.59;6225527;22;47616;-81
2022/06/29 03:06:26;;;;;;;;;2.00;2.00;;;;;19.52;57.13;100673.09;6279014;22;44797;-82
2022/06/29 03:08:52;;;;;;;;;3.67;3.67;;;;;19.46;57.01;100657.06;6285523;22;45265;-82
2022/06/29 03:11:18;;;;;;;;;2.00;2.00;;;;;19.45;57.51;100656.19;6259399;22;45329;-82
2022/06/29 03:13:43;;;;;;;;;3.00;3.00;;;;;19.51;57.49;100674.00;6285061;22;45401;-81
2022/06/29 03:16:11;;;;;;;;;3.67;3.67;;;;;19.45;57.71;100674.16;6255367;22;45357;-81
2022/06/29 03:18:37;;;;;;;;;3.33;3.33;;;;;19.43;57.69;100681.41;6254394;22;46787;-82
2022/06/29 03:21:04;;;;;;;;;3.00;3.00;;;;;19.44;57.96;100685.91;6256267;22;45439;-82
2022/06/29 03:23:32;;;;;;;;;2.00;2.00;;;;;19.42;57.89;100674.25;6283167;22;45459;-81
2022/06/29 03:25:58;;;;;;;;;2.33;2.33;;;;;19.26;58.28;100657.53;6280447;22;44779;-81
2022/06/29 03:28:23;;;;;;;;;2.00;2.00;;;;;19.35;58.14;100674.41;6255426;22;47384;-82
2022/06/29 03:30:48;;;;;;;;;3.00;3.00;;;;;19.29;57.85;100674.53;6283628;22;45416;-80
2022/06/29 03:33:14;;;;;;;;;4.33;3.00;;;;;19.23;57.95;100669.28;6286076;22;45350;-80
2022/06/29 03:35:41;;;;;;;;;2.67;2.67;;;;;19.23;58.44;100673.78;6284885;22;45436;-81
2022/06/29 03:38:06;;;;;;;;;2.67;2.67;;;;;19.18;58.78;100663.09;6255980;22;47766;-82
2022/06/29 03:40:32;;;;;;;;;2.67;2.67;;;;;19.10;58.79;100654.31;6256422;22;45355;-81
2022/06/29 03:42:57;;;;;;;;;2.67;2.67;;;;;19.15;58.32;100657.78;6283241;22;45392;-82
2022/06/29 03:45:29;;;;;;;;;3.67;3.67;;;;;19.18;58.94;100671.19;6255905;22;45364;-81
2022/06/29 03:47:54;;;;;;;;;3.33;3.33;;;;;19.14;58.83;100664.09;6284451;22;45766;-82
2022/06/29 03:50:20;;;;;;;;;4.00;3.00;;;;;19.08;58.83;100658.84;6286117;22;44822;-81
2022/06/29 03:52:46;;;;;;;;;2.00;2.00;;;;;19.10;58.56;100663.28;6260097;22;44885;-83
2022/06/29 03:55:15;;;;;;;;;3.00;3.00;;;;;19.16;58.85;100663.13;6287442;22;45284;-81
2022/06/29 03:57:40;;;;;;;;;3.33;3.00;;;;;19.10;58.78;100659.69;6258712;22;47068;-81
2022/06/29 04:00:07;;;;;;;;;3.00;3.00;;;;;19.14;58.98;100669.47;6287440;22;45258;-81
2022/06/29 04:02:32;;;;;;;;;3.00;3.00;;;;;19.12;58.94;100665.94;6287363;22;45331;-81
2022/06/29 04:04:58;;;;;;;;;4.00;4.00;;;;;19.15;59.16;100665.88;6257734;22;45471;-81
2022/06/29 04:07:24;;;;;;;;;2.00;2.00;;;;;19.16;59.49;100667.66;6256830;22;46868;-81
2022/06/29 04:09:59;;;;;;;;;4.00;4.00;;;;;19.13;59.33;100662.34;6285966;22;45365;-81
2022/06/29 04:12:32;;;;;;;;;2.00;2.00;;;;;19.13;59.49;100665.03;6286268;22;45453;-81
2022/06/29 04:14:58;;;;;;;;;3.00;3.00;;;;;19.16;59.12;100668.53;6259238;22;45007;-81
2022/06/29 04:17:26;;;;;;;;;3.00;3.00;;;;;19.15;59.51;100668.59;6258637;22;46748;-81
2022/06/29 04:19:52;;;;;;;;;4.33;4.33;;;;;19.17;59.73;100664.03;6258195;22;45389;-81
2022/06/29 04:22:19;;;;;;;;;5.00;5.00;;;;;19.16;59.87;100665.81;6285298;22;45414;-81
2022/06/29 04:24:44;;;;;;;;;8.33;7.00;;;;;19.16;59.47;100656.84;6285199;22;45332;-80
2022/06/29 04:27:11;;;;;;;;;7.00;7.00;;;;;19.30;59.55;100665.50;6257650;22;46555;-82
2022/06/29 04:29:36;;;;;;;;;4.67;2.33;;;;;19.33;59.27;100654.66;6284701;22;45370;-81
2022/06/29 04:32:03;;;;;;;;;5.33;5.00;;;;;19.44;59.63;100657.09;6287220;22;45250;-81
2022/06/29 04:34:35;;;;;;;;;10.67;8.67;;;;;19.53;59.90;100661.38;6258727;22;45440;-81
2022/06/29 04:37:00;;;;;;;;;4.00;4.00;;;;;19.54;59.39;100655.97;6285141;22;45425;-81
2022/06/29 04:39:26;;;;;;;;;3.00;3.00;;;;;19.61;59.17;100661.19;6259024;22;45361;-82
2022/06/29 04:41:55;;;;;;;;;4.00;4.00;;;;;19.73;59.16;100669.94;6258038;22;45251;-82
2022/06/29 04:44:21;;;;;;;;;3.67;3.67;;;;;19.81;58.90;100666.13;6257993;22;45609;-82
2022/06/29 04:46:46;;;;;;;;;4.00;3.67;;;;;19.87;59.07;100666.84;6286071;22;44956;-81
2022/06/29 04:49:11;;;;;;;;;5.67;3.67;;;;;19.95;58.42;100674.75;6285510;22;45396;-82
2022/06/29 04:51:38;;;;;;;;;5.00;4.00;;;;;20.03;57.75;100667.34;6283623;22;44922;-82
2022/06/29 04:54:04;;;;;;;;;4.00;4.00;;;;;20.12;56.47;100674.34;6257756;22;45331;-82
2022/06/29 04:56:32;;;;;;;;;4.67;3.00;;;;;20.21;56.12;100671.38;6258141;22;45073;-81
2022/06/29 04:59:02;;;;;;;;;2.33;2.33;;;;;20.32;56.31;100680.09;6288248;22;45346;-83
2022/06/29 05:01:30;;;;;;;;;5.00;5.00;;;;;20.42;56.88;100667.22;6259074;22;45346;-81
2022/06/29 05:03:59;;;;;;;;;6.33;4.00;;;;;20.44;56.50;100648.25;6259465;22;45288;-82
2022/06/29 05:06:25;;;;;;;;;4.00;3.00;;;;;20.58;55.75;100665.91;6287547;22;45476;-82
2022/06/29 05:08:52;;;;;;;;;3.33;3.33;;;;;20.60;55.79;100656.84;6288445;22;45433;-82
2022/06/29 05:11:22;;;;;;;;;5.00;3.00;;;;;20.67;54.63;100667.44;6287993;22;45406;-82
2022/06/29 05:13:48;;;;;;;;;4.00;4.00;;;;;20.74;54.01;100660.03;6287882;22;45299;-81
2022/06/29 05:16:14;;;;;;;;;3.33;3.33;;;;;20.79;53.16;100660.78;6284891;22;45386;-81
2022/06/29 05:18:42;;;;;;;;;2.67;2.67;;;;;20.84;52.72;100655.25;6282787;22;46153;-82
2022/06/29 05:21:09;;;;;;;;;4.67;2.33;;;;;20.94;52.52;100651.31;6256417;22;44827;-81
2022/06/29 05:23:34;;;;;;;;;2.67;2.67;;;;;21.02;51.80;100659.22;6258572;22;45327;-82
2022/06/29 05:26:00;;;;;;;;;4.00;4.00;;;;;21.07;51.64;100668.09;6286118;22;44939;-82
2022/06/29 05:28:27;;;;;;;;;5.00;4.33;;;;;21.10;51.34;100651.75;6259164;22;45263;-82
2022/06/29 05:30:55;;;;;;;;;3.67;3.00;;;;;21.24;51.19;100656.72;6286513;22;45438;-81
2022/06/29 05:33:21;;;;;;;;;2.00;2.00;;;;;21.33;51.35;100665.44;6286570;22;45281;-81
2022/06/29 05:35:47;;;;;;;;;3.67;3.67;;;;;21.40;50.69;100670.66;6287653;22;45929;-82
2022/06/29 05:38:12;;;;;;;;;2.00;2.00;;;;;21.45;50.66;100668.72;6258547;22;45368;-82
2022/06/29 05:40:39;;;;;;;;;3.67;3.67;;;;;21.55;49.59;100665.69;6287747;22;45386;-82
2022/06/29 05:43:05;;;;;;;;;3.67;3.00;;;;;21.65;49.55;100666.22;6259647;22;45251;-82
2022/06/29 05:45:33;;;;;;;;;3.00;2.00;;;;;21.72;49.19;100654.28;6258893;22;46735;-82
2022/06/29 05:47:58;;;;;;;;;3.67;3.67;;;;;21.81;48.67;100660.31;6285644;22;44771;-82
2022/06/29 05:50:24;;;;;;;;;2.00;2.00;;;;;21.91;48.72;100642.81;6288042;22;45294;-80
2022/06/29 05:52:52;;;;;;;;;2.00;2.00;;;;;21.98;47.47;100642.56;6260124;22;45377;-82
2022/06/29 05:55:18;;;;;;;;;4.00;3.00;;;;;22.07;47.29;100654.00;6287066;22;45356;-82
2022/06/29 05:57:45;;;;;;;;;2.33;2.33;;;;;22.18;47.09;100644.56;6259351;22;45183;-81
2022/06/29 06:00:12;;;;;;;;;2.33;2.33;;;;;22.28;46.89;100649.69;6260516;22;45337;-80
2022/06/29 06:02:40;;;;;;;;;2.33;2.33;;;;;22.35;46.23;100645.81;6259452;22;44841;-82
2022/06/29 06:05:06;;;;;;;;;2.33;2.00;;;;;22.48;46.01;100657.09;6258232;22;46719;-83
2022/06/29 06:07:39;;;;;;;;;1.00;1.00;;;;;22.50;46.07;100655.19;6259875;22;44966;-81
2022/06/29 06:10:05;;;;;;;;;3.00;1.00;;;;;22.53;46.01;100657.81;6286807;22;45386;-82
2022/06/29 06:12:30;;;;;;;;;2.00;2.00;;;;;22.63;45.93;100656.53;6259993;22;45324;-82
2022/06/29 06:15:00;;;;;;;;;3.00;3.00;;;;;22.71;45.64;100653.53;6287978;22;45333;-83
2022/06/29 06:17:28;;;;;;;;;4.00;3.00;;;;;22.74;45.75;100650.69;6288589;22;45372;-81
2022/06/29 06:19:55;;;;;;;;;3.67;3.00;;;;;22.87;45.69;100652.00;6262203;22;45416;-82
2022/06/29 06:22:21;;;;;;;;;4.00;4.00;;;;;22.97;45.12;100657.97;6288007;22;45436;-82
2022/06/29 06:24:50;;;;;;;;;3.00;3.00;;;;;23.06;44.58;100657.63;6287702;22;46152;-82
2022/06/29 06:27:16;;;;;;;;;2.00;2.00;;;;;23.12;44.81;100660.09;6259193;22;45354;-81
2022/06/29 06:29:42;;;;;;;;;2.00;2.00;;;;;23.15;44.71;100654.56;6262447;22;45274;-81
2022/06/29 06:32:08;;;;;;;;;2.00;2.00;;;;;23.31;44.64;100662.97;6288548;22;45648;-82
2022/06/29 06:34:36;;;;;;;;;2.67;2.67;;;;;23.40;43.86;100664.44;6261784;22;45426;-82
2022/06/29 06:37:08;;;;;;;;;3.00;3.00;;;;;23.49;44.03;100666.78;6263897;22;45279;-82
2022/06/29 06:39:35;;;;;;;;;4.33;3.00;;;;;23.59;43.90;100661.81;6263212;22;45433;-82
2022/06/29 06:42:04;;;;;;;;;3.67;2.00;;;;;23.63;43.22;100649.94;6290901;22;44818;-82
2022/06/29 06:44:29;;;;;;;;;1.25;1.25;;;;;23.82;43.30;100660.03;6262385;22;45543;-83
2022/06/29 06:46:55;;;;;;;;;3.00;3.00;;;;;23.94;42.84;100657.69;6261754;22;45045;-82
2022/06/29 06:49:24;;;;;;;;;2.00;2.00;;;;;23.99;42.69;100654.75;6288641;22;45255;-82
2022/06/29 06:51:51;;;;;;;;;4.00;3.00;;;;;23.94;41.78;100643.22;6261790;22;45476;-82
2022/06/29 06:54:21;;;;;;;;;2.00;2.00;;;;;24.01;42.23;100642.00;6288247;22;46262;-81
2022/06/29 06:56:46;;;;;;;;;2.00;2.00;;;;;24.12;42.05;100647.84;6258758;22;45270;-80
2022/06/29 06:59:12;;;;;;;;;2.33;2.00;;;;;24.23;42.07;100650.09;6289816;22;44854;-81
2022/06/29 07:01:41;;;;;;;;;1.00;1.00;;;;;24.39;41.24;100647.56;6259178;22;44836;-82
2022/06/29 07:04:15;;;;;;;;;2.00;2.00;;;;;24.49;40.54;100648.03;6287572;22;45341;-82
2022/06/29 07:06:47;;;;;;;;;2.00;2.00;;;;;24.47;40.63;100648.09;6239097;22;45322;-83
2022/06/29 07:09:13;;;;;;;;;1.00;1.00;;;;;24.40;39.89;100640.28;6256207;22;45317;-83
2022/06/29 07:11:39;;;;;;;;;1.33;1.33;;;;;24.39;40.59;100642.13;6256894;22;45598;-83
2022/06/29 07:14:05;;;;;;;;;2.33;1.00;;;;;24.48;40.43;100649.88;6256654;22;47595;-83
2022/06/29 07:16:30;;;;;;;;;1.33;1.33;;;;;24.59;40.54;100646.72;6204292;22;45471;-83
2022/06/29 07:19:02;;;;;;;;;2.00;2.00;;;;;24.75;40.40;100657.75;6231087;22;45431;-82
2022/06/29 07:21:34;;;;;;;;;3.00;2.67;;;;;24.89;40.13;100652.56;6231599;22;45259;-83
2022/06/29 07:23:59;;;;;;;;;1.33;1.33;;;;;25.02;39.48;100657.41;6254239;22;45040;-83
2022/06/29 07:26:56;;;;;;;;;3.00;3.00;;;;;25.08;39.63;100660.72;6234378;22;45331;-83
2022/06/29 07:29:25;;;;;;;;;2.00;1.67;;;;;25.08;39.34;100630.78;6258961;22;45387;-83
2022/06/29 07:31:59;;;;;;;;;2.67;2.00;;;;;25.24;39.58;100622.81;6233288;22;45369;-83
2022/06/29 07:34:32;;;;;;;;;2.33;2.33;;;;;25.41;39.26;100645.59;6234117;22;45264;-83
2022/06/29 07:37:23;;;;;;;;;1.00;1.00;;;;;25.46;39.05;100655.31;6234336;22;45557;-83
2022/06/29 07:46:33;;;;;;;;;3.67;2.00;;;;;25.59;38.88;100622.00;6260962;22;45311;-82
2022/06/29 07:48:59;;;;;;;;;1.67;1.00;;;;;25.73;38.72;100654.88;6259200;22;45540;-81
2022/06/29 07:51:24;;;;;;;;;1.67;1.00;;;;;25.73;38.82;100650.34;6263450;22;44876;-82
2022/06/29 07:53:50;;;;;;;;;3.67;2.67;;;;;25.56;38.34;100644.84;6233311;22;45289;-82
2022/06/29 07:56:19;;;;;;;;;1.67;1.67;;;;;25.55;39.05;100633.06;6232169;22;46688;-82
2022/06/29 07:58:47;;;;;;;;;3.00;2.00;;;;;25.64;39.01;100629.00;6194453;22;45287;-82
2022/06/29 08:01:16;;;;;;;;;1.00;1.00;;;;;25.79;38.12;100651.84;6196903;22;45319;-81
2022/06/29 08:07:19;;;;;;;;;1.00;1.00;;;;;25.88;38.53;100656.84;6203716;22;45406;-83
2022/06/29 08:09:44;;;;;;;;;3.00;3.00;;;;;25.96;38.95;100659.19;6173416;23;44776;-83
2022/06/29 08:12:16;;;;;;;;;5.00;4.00;;;;;26.02;38.73;100649.84;6172709;23;45283;-83
2022/06/29 08:14:55;;;;;;;;;3.00;3.00;;;;;25.90;38.65;100626.81;6145015;23;45484;-82
2022/06/29 08:17:20;;;;;;;;;2.00;2.00;;;;;26.07;38.91;100645.88;6195727;22;45379;-82
2022/06/29 08:19:50;;;;;;;;;2.00;1.50;;;;;26.14;38.89;100649.19;6193866;22;45342;-83
2022/06/29 08:22:16;;;;;;;;;3.67;2.00;;;;;26.17;38.77;100643.56;6167565;23;45419;-82
2022/06/29 08:24:41;;;;;;;;;2.00;2.00;;;;;26.17;38.56;100629.94;6170773;22;45318;-83
2022/06/29 08:27:10;;;;;;;;;0.00;0.00;;;;;26.22;38.63;100622.41;6196497;22;45501;-82
2022/06/29 08:29:41;;;;;;;;;2.00;2.00;;;;;26.29;38.42;100622.97;6221884;22;45278;-82
2022/06/29 08:35:34;;;;;;;;;2.00;2.00;;;;;26.45;38.18;100623.03;6257907;22;45473;-82
2022/06/29 08:38:00;;;;;;;;;1.25;1.25;;;;;26.40;37.61;100614.19;6230485;22;45330;-83
2022/06/29 08:41:06;;;;;;;;;1.67;1.67;;;;;26.40;37.50;100606.00;6258720;22;45224;-82
2022/06/29 08:43:46;;;;;;;;;3.67;3.67;;;;;26.43;37.10;100595.81;6251515;22;45376;-82
2022/06/29 08:46:36;;;;;;;;;3.00;2.00;;;;;26.33;37.16;100595.44;6228068;22;45446;-83
2022/06/29 08:49:06;;;;;;;;;1.25;1.25;;;;;26.43;36.96;100614.91;6230321;22;46960;-83
2022/06/29 08:52:08;;;;;;;;;1.25;1.25;;;;;26.49;36.40;100620.03;6232235;22;44781;-81
2022/06/29 09:04:41;;;;;;;;;2.00;2.00;;;;;26.41;35.40;100583.25;6261144;22;45359;-82
2022/06/29 09:07:14;;;;;;;;;3.00;3.00;;;;;26.72;35.18;100634.28;6234444;22;45437;-81
2022/06/29 09:10:14;;;;;;;;;;;;;;;;;;;;;
2022/06/29 09:12:52;;;;;;;;;2.00;2.00;;;;;26.49;35.34;100622.75;6261393;22;74467;-83
2022/06/29 09:15:37;;;;;;;;;1.67;1.67;;;;;26.20;35.57;100602.53;6232094;22;45404;-83
2022/06/29 09:19:14;;;;;;;;;3.67;3.00;;;;;26.32;35.31;100639.16;6232152;22;45353;-81
2022/06/29 09:22:12;;;;;;;;;2.00;2.00;;;;;26.29;34.47;100633.88;6134304;23;44869;-82
2022/06/29 09:24:48;;;;;;;;;4.00;2.00;;;;;26.26;35.08;100628.59;6019575;23;45523;-84
2022/06/29 09:27:19;;;;;;;;;2.67;2.67;;;;;26.29;35.23;100628.41;6019232;23;45361;-83
2022/06/29 09:33:09;;;;;;;;;0.67;0.67;;;;;26.03;35.20;100595.22;6019037;23;45267;-83
2022/06/29 09:35:42;;;;;;;;;3.00;3.00;;;;;26.23;34.87;100634.19;6018284;23;45127;-82
2022/06/29 09:38:25;;;;;;;;;2.00;2.00;;;;;26.13;35.09;100623.75;6016825;23;44757;-82
2022/06/29 09:41:14;;;;;;;;;1.00;1.00;;;;;26.12;35.18;100653.84;5994030;23;45446;-82
2022/06/29 09:44:28;;;;;;;;;1.00;1.00;;;;;26.12;35.26;100643.81;5993020;23;45527;-82
2022/06/29 09:46:58;;;;;;;;;1.00;1.00;;;;;26.09;34.97;100638.50;5933054;24;45396;-83
2022/06/29 09:49:30;;;;;;;;;1.75;1.75;;;;;25.99;34.48;100620.00;5966414;23;44856;-81
2022/06/29 09:52:00;;;;;;;;;0.00;0.00;;;;;25.96;35.21;100621.06;6046397;23;45720;-82
2022/06/29 09:55:00;;;;;;;;;2.25;2.25;;;;;26.13;35.83;100648.28;6045057;23;44856;-82
2022/06/29 09:57:35;;;;;;;;;2.33;2.33;;;;;26.00;35.24;100625.38;6105105;23;45330;-84
2022/06/29 10:03:00;;;;;;;;;2.67;2.33;;;;;25.80;35.34;100604.59;6076021;23;44840;-83
2022/06/29 10:08:19;;;;;;;;;2.33;2.33;;;;;25.91;35.70;100624.00;6060988;23;45464;-84
2022/06/29 10:10:56;;;;;;;;;2.00;2.00;;;;;25.85;35.86;100624.28;6106622;23;45298;-83
2022/06/29 10:13:44;;;;;;;;;3.00;3.00;;;;;25.90;36.22;100627.69;6108582;23;45352;-82
2022/06/29 10:16:26;;;;;;;;;4.00;2.33;;;;;26.00;35.90;100616.34;6114393;23;45506;-81
2022/06/29 10:19:30;;;;;;;;;2.33;2.33;;;;;26.10;35.39;100613.03;6173102;22;45313;-83
2022/06/29 10:21:57;;;;;;;;;3.00;1.33;;;;;26.18;34.93;100604.47;6197861;22;45317;-83
2022/06/29 10:24:25;;;;;;;;;2.67;2.67;;;;;26.21;34.81;100608.84;6173881;23;44891;-84
2022/06/29 10:26:53;;;;;;;;;1.33;1.33;;;;;26.36;34.85;100608.03;6199010;22;44802;-83
2022/06/29 10:29:25;;;;;;;;;4.33;4.33;;;;;26.43;34.34;100609.47;6197003;23;46909;-82
2022/06/29 10:31:54;;;;;;;;;7.33;4.67;;;;;26.55;33.81;100603.34;6194912;22;45029;-82
2022/06/29 10:35:06;;;;;;;;;2.00;2.00;;;;;26.63;34.01;100585.72;6200188;22;44776;-82
2022/06/29 10:37:55;;;;;;;;;2.00;2.00;;;;;26.72;33.44;100593.38;6224072;22;45819;-84
2022/06/29 10:40:27;;;;;;;;;5.00;5.00;;;;;26.72;33.59;100599.72;6226190;22;45306;-83
2022/06/29 10:43:18;;;;;;;;;2.00;2.00;;;;;26.49;33.48;100570.06;6226438;22;45307;-83
2022/06/29 10:45:54;;;;;;;;;3.00;3.00;;;;;26.73;33.31;100590.56;6203546;22;45393;-83
2022/06/29 10:48:23;;;;;;;;;2.33;2.33;;;;;26.68;33.27;100587.22;6262330;22;44729;-83
2022/06/29 10:50:52;;;;;;;;;1.00;1.00;;;;;26.60;32.88;100577.69;6261192;22;45456;-83
2022/06/29 11:00:09;;;;;;;;;2.00;2.00;;;;;26.58;33.62;100563.25;6136333;23;45427;-82
2022/06/29 11:02:44;;;;;;;;;2.00;2.00;;;;;26.74;33.41;100572.34;6137430;23;45102;-83
2022/06/29 11:05:11;;;;;;;;;2.33;2.33;;;;;26.86;33.70;100579.81;6113136;23;44878;-83
2022/06/29 11:16:56;;;;;;;;;4.00;4.00;;;;;26.50;33.13;100533.63;6296310;22;45334;-83
2022/06/29 11:19:40;;;;;;;;;2.33;2.33;;;;;26.70;32.70;100574.38;6323844;22;45433;-81
2022/06/29 11:22:37;;;;;;;;;0.33;0.33;;;;;26.65;32.51;100548.31;6297016;22;45490;-83
2022/06/29 11:25:04;;;;;;;;;1.33;1.33;;;;;26.44;32.22;100536.69;6321932;22;45158;-84
2022/06/29 11:27:39;;;;;;;;;3.00;3.00;;;;;26.28;32.56;100520.34;6322283;22;45285;-83
2022/06/29 11:30:10;;;;;;;;;1.25;1.25;;;;;26.54;32.58;100560.69;6321864;22;44677;-82
2022/06/29 11:36:09;;;;;;;;;2.33;2.00;;;;;26.56;32.24;100560.56;6319924;22;45858;-82
2022/06/29 11:39:06;;;;;;;;;1.67;1.67;;;;;26.42;32.17;100531.34;6319656;22;45028;-84
2022/06/29 11:44:27;;;;;;;;;2.00;1.75;;;;;26.60;32.46;100556.75;6321380;22;44819;-83
2022/06/29 11:47:08;;;;;;;;;3.00;3.00;;;;;26.71;32.25;100564.34;6293754;22;46729;-84
2022/06/29 11:49:43;;;;;;;;;1.67;1.67;;;;;26.78;32.31;100554.81;6320778;22;45298;-83
2022/06/29 11:52:13;;;;;;;;;2.00;2.00;;;;;26.70;32.10;100540.72;6320290;22;45435;-84
2022/06/29 11:55:01;;;;;;;;;1.00;1.00;;;;;26.78;31.87;100551.22;6322137;22;45309;-83
2022/06/29 12:01:28;;;;;;;;;1.25;1.25;;;;;27.37;31.57;100552.41;6259140;22;45470;-83
2022/06/29 12:04:12;;;;;;;;;2.00;2.00;;;;;27.48;32.00;100513.50;6257291;22;44837;-84
2022/06/29 12:09:23;;;;;;;;;1.00;1.00;;;;;28.06;30.71;100518.16;6320204;22;45306;-83
2022/06/29 12:11:57;;;;;;;;;2.75;1.50;;;;;28.09;31.11;100484.28;6323226;22;45364;-82
2022/06/29 12:14:26;;;;;;;;;1.25;1.00;;;;;28.25;30.73;100495.13;6323027;22;45435;-83
2022/06/29 12:16:54;;;;;;;;;1.00;1.00;;;;;28.35;30.17;100492.69;6324322;22;45408;-82
2022/06/29 12:19:30;;;;;;;;;4.00;4.00;;;;;28.50;29.80;100503.53;6323437;22;45374;-82
2022/06/29 12:22:14;;;;;;;;;7.00;5.00;;;;;28.50;30.04;100478.03;6324038;22;44793;-83
2022/06/29 12:24:52;;;;;;;;;1.00;1.00;;;;;28.83;29.81;100495.97;6325579;22;44779;-84
2022/06/29 12:27:17;;;;;;;;;0.50;0.25;;;;;29.00;29.40;100508.53;6326897;22;44788;-83
2022/06/29 12:29:52;;;;;;;;;0.25;0.25;;;;;29.15;29.60;100495.69;6326192;22;45112;-83
2022/06/29 12:32:17;;;;;;;;;1.00;1.00;;;;;29.25;29.12;100505.06;6297528;22;45086;-83
2022/06/29 12:34:58;;;;;;;;;0.33;0.33;;;;;29.33;29.50;100508.16;6297680;22;45340;-82
2022/06/29 12:37:24;;;;;;;;;3.33;1.00;;;;;29.30;29.40;100511.94;6320379;22;45351;-83
2022/06/29 12:39:53;;;;;;;;;1.00;1.00;;;;;29.19;29.44;100503.59;6323472;22;45017;-84
2022/06/29 12:42:19;;;;;;;;;3.00;2.00;;;;;29.02;29.81;100492.88;6294649;22;45069;-83
2022/06/29 12:44:44;;;;;;;;;0.67;0.67;;;;;29.09;29.52;100488.75;6324994;22;44783;-83
2022/06/29 12:47:12;;;;;;;;;1.00;1.00;;;;;29.10;29.42;100474.06;6323031;22;45269;-83
2022/06/29 12:53:06;;;;;;;;;0.67;0.67;;;;;28.84;29.92;100498.56;6288753;22;45404;-84
2022/06/29 12:58:20;;;;;;;;;0.00;0.00;;;;;28.59;29.66;100504.78;6303425;22;45395;-84
2022/06/29 13:01:14;;;;;;;;;1.00;1.00;;;;;28.44;30.44;100500.28;6322305;22;46854;-83